Latest Weather Observations for Yarram Airport

IDV60801

Issued at 12:32 am EDT Saturday 16 November 2019 (issued every 10 minutes, with the page automatically refreshed every 10 minutes)

About weather observations | Map of weather stations | Latest weather observations for VIC | Other Formats
Station Details ID: 085151 Name: YARRAM AIRPORT Lat: -38.56 Lon: 146.75 Height: 17.9 m
Data from the previous 72 hours. | See also: Recent months at Yarram Airport
Date/Time
EDT
Temp
°C
App
Temp
°C
Dew
Point
°C
Rel
Hum
%
Delta-T
°C
Wind Press
QNH
hPa
Press
MSL
hPa
Rain since
9am
mm
Dir  Spd
km/h
Gust
km/h
Spd
kts
Gust
kts
16/12:30am 9.0 5.3 6.1 82 1.3 WNW 15 19 8 10 1014.6 1014.6 0.4
16/12:00am 8.8 5.1 6.1 83 1.2 WNW 15 19 8 10 1014.5 1014.5 0.4
 
Date/Time
EDT
Temp
°C
App
Temp
°C
Dew
Point
°C
Rel
Hum
%
Delta-T
°C
Wind Press
QNH
hPa
Press
MSL
hPa
Rain since
9am
mm
Dir  Spd
km/h
Gust
km/h
Spd
kts
Gust
kts
15/11:30pm 8.7 4.6 6.0 83 1.2 WNW 17 19 9 10 1014.3 1014.3 0.4
15/11:00pm 9.1 5.4 6.2 82 1.3 WNW 15 20 8 11 1014.2 1014.2 0.4
15/10:30pm 9.5 5.0 6.2 80 1.5 WNW 19 26 10 14 1014.0 1014.0 0.4
15/10:00pm 9.7 5.3 6.6 81 1.4 W 19 26 10 14 1013.9 1013.9 0.4
15/09:30pm 9.9 5.9 6.6 80 1.5 WNW 17 20 9 11 1013.7 1013.7 0.4
15/09:00pm 10.9 5.9 6.6 75 2.0 W 22 32 12 17 1013.4 1013.4 0.4
15/08:30pm 11.3 5.1 6.0 70 2.5 W 28 39 15 21 1012.4 1012.4 0.4
15/08:00pm 12.0 5.9 6.5 69 2.6 W 28 39 15 21 1012.1 1012.1 0.4
15/07:30pm 12.7 6.2 6.3 65 3.0 WSW 30 52 16 28 1011.5 1011.5 0.4
15/07:00pm 13.3 5.8 6.2 62 3.4 WSW 35 54 19 29 1011.0 1011.0 0.4
15/06:35pm 13.9 6.9 5.8 58 3.8 WSW 32 52 17 28 1010.5 1010.5 0.4
15/06:30pm 14.3 8.3 7.1 62 3.5 WSW 28 43 15 23 1010.5 1010.5 0.4
15/06:16pm 14.3 6.6 6.9 61 3.6 WSW 37 56 20 30 1010.3 1010.3 0.4
15/06:00pm 13.9 4.9 6.5 61 3.6 WSW 43 57 23 31 1010.1 1010.1 0.4
15/05:46pm 13.9 7.1 7.0 63 3.4 WSW 32 57 17 31 1009.9 1009.9 0.4
15/05:30pm 14.5 8.1 8.5 67 3.0 WSW 32 46 17 25 1009.8 1009.8 0.4
15/05:00pm 12.9 4.5 8.8 76 2.1 W 43 63 23 34 1009.3 1009.3 0.4
15/04:48pm 13.0 5.2 9.6 80 1.7 WSW 41 61 22 33 1009.2 1009.2 0.4
15/04:30pm 13.5 6.7 10.5 82 1.6 W 37 50 20 27 1008.8 1008.8 0.4
15/04:00pm 13.5 8.1 11.0 85 1.3 W 30 39 16 21 1008.6 1008.6 0.2
15/03:30pm 13.3 7.3 10.7 84 1.4 W 33 50 18 27 1008.6 1008.6 0.2
15/03:00pm 14.2 9.4 11.5 84 1.4 W 28 43 15 23 1008.5 1008.5 0.2
15/02:43pm 13.6 7.2 10.6 82 1.6 W 35 56 19 30 1008.3 1008.3 0.2
15/02:30pm 13.9 8.4 11.9 88 1.1 WSW 32 48 17 26 1008.3 1008.3 0.2
15/02:00pm 14.2 9.0 12.8 91 0.8 WSW 32 44 17 24 1007.9 1007.9 0.0
15/01:30pm 15.2 10.8 11.6 79 1.9 SW 26 33 14 18 1007.7 1007.7 0.0
15/01:00pm 15.6 9.9 9.9 69 3.0 W 30 41 16 22 1007.7 1007.7 0.0
15/12:52pm 16.0 10.4 10.1 68 3.1 W 30 48 16 26 1007.8 1007.8 0.0
15/12:30pm 16.9 10.3 10.1 64 3.6 W 35 46 19 25 1007.8 1007.8 0.0
15/12:00pm 16.5 8.9 9.0 61 3.9 W 39 61 21 33 1007.9 1007.9 0.0
15/11:39am 17.2 10.1 9.6 61 4.0 WNW 37 61 20 33 1008.1 1008.1 0.0
15/11:30am 17.1 10.6 10.2 64 3.7 WNW 35 50 19 27 1008.2 1008.2 0.0
15/11:24am 16.3 9.2 9.5 64 3.5 WNW 37 56 20 30 1008.2 1008.2 0.0
15/11:00am 15.9 8.6 8.6 62 3.7 WNW 37 54 20 29 1008.2 1008.2 0.0
15/10:39am 15.6 9.1 8.8 64 3.5 WNW 33 52 18 28 1008.3 1008.3 0.0
15/10:30am 15.7 8.7 8.4 62 3.7 W 35 52 19 28 1008.1 1008.1 0.0
15/10:09am 15.2 9.5 8.2 63 3.5 WNW 28 50 15 27 1008.2 1008.2 0.0
15/10:00am 15.5 9.8 8.5 63 3.6 W 28 43 15 23 1008.2 1008.2 0.0
15/09:53am 16.0 9.7 9.0 63 3.6 W 32 50 17 27 1008.2 1008.2 0.0
15/09:30am 15.5 9.9 8.7 64 3.5 WNW 28 41 15 22 1008.3 1008.3 0.0
15/09:09am 14.8 8.1 8.3 65 3.3 WNW 33 52 18 28 1008.4 1008.4 0.0
15/09:00am 14.5 6.3 8.0 65 3.2 WNW 41 52 22 28 1008.3 1008.3 0.0
15/08:31am 14.3 8.4 8.9 70 2.7 WNW 30 48 16 26 1008.5 1008.5 0.0
15/08:30am 14.1 8.1 8.5 69 2.8 WNW 30 46 16 25 1008.5 1008.5 0.0
15/08:00am 14.9 8.9 8.8 67 3.1 WNW 30 39 16 21 1008.5 1008.5 0.0
15/07:30am 13.7 7.9 8.1 69 2.8 WNW 28 39 15 21 1008.1 1008.1 0.0
15/07:00am 13.0 6.9 8.1 72 2.4 WNW 30 43 16 23 1008.2 1008.2 0.0
15/06:30am 12.9 5.3 7.4 69 2.7 WNW 37 50 20 27 1007.9 1007.9 0.0
15/06:00am 11.8 6.7 7.5 75 2.1 WNW 24 35 13 19 1007.9 1007.9 0.0
15/05:30am 11.8 7.1 7.9 77 1.9 WNW 22 32 12 17 1007.7 1007.7 0.0
15/05:00am 12.1 8.1 8.2 77 1.9 WNW 19 26 10 14 1007.6 1007.6 0.0
15/04:30am 13.3 8.5 8.8 74 2.3 W 24 33 13 18 1007.6 1007.6 0.0
15/04:00am 13.6 9.3 9.3 75 2.2 W 22 30 12 16 1007.7 1007.7 0.0
15/03:30am 13.9 9.3 9.5 75 2.3 W 24 35 13 19 1008.0 1008.0 0.0
15/03:00am 13.9 10.7 9.9 77 2.1 W 17 24 9 13 1007.9 1007.9 0.0
15/02:30am 14.1 10.3 9.9 76 2.2 W 20 30 11 16 1008.2 1008.2 0.0
15/02:00am 13.9 10.7 10.1 78 2.0 W 17 24 9 13 1008.5 1008.5 0.0
15/01:30am 13.9 11.3 10.7 81 1.7 W 15 20 8 11 1008.6 1008.6 0.0
15/01:00am 13.8 11.3 11.0 83 1.5 W 15 20 8 11 1008.9 1008.9 0.0
15/12:30am 13.2 11.5 11.3 88 1.0 W 11 15 6 8 1009.5 1009.5 0.0
15/12:00am 12.7 10.9 10.9 89 0.9 W 11 15 6 8 1009.8 1009.8 0.0
 
Date/Time
EDT
Temp
°C
App
Temp
°C
Dew
Point
°C
Rel
Hum
%
Delta-T
°C
Wind Press
QNH
hPa
Press
MSL
hPa
Rain since
9am
mm
Dir  Spd
km/h
Gust
km/h
Spd
kts
Gust
kts
14/11:30pm 13.3 11.7 11.7 90 0.9 WSW 11 19 6 10 1010.1 1010.1 0.0
14/11:00pm 13.2 12.0 11.6 90 0.9 W 9 13 5 7 1010.2 1010.2 0.0
14/10:30pm 13.5 10.8 11.7 89 1.0 WSW 17 20 9 11 1010.3 1010.3 0.0
14/10:00pm 13.1 9.4 11.5 90 0.9 SW 22 30 12 16 1010.6 1010.6 0.0
14/09:30pm 12.6 9.3 11.0 90 0.8 SW 19 24 10 13 1010.4 1010.4 0.0
14/09:00pm 13.0 8.8 11.1 88 1.0 SW 24 32 13 17 1010.2 1010.2 0.0
14/08:30pm 13.7 9.9 11.2 85 1.3 WSW 22 32 12 17 1010.1 1010.1 0.0
14/08:00pm 14.7 10.1 11.1 79 1.9 WSW 26 32 14 17 1010.1 1010.1 0.0
14/07:30pm 16.2 12.0 11.2 72 2.7 WSW 24 39 13 21 1010.0 1010.0 0.0
14/07:00pm 18.1 13.6 10.0 59 4.3 W 24 35 13 19 1009.6 1009.6 0.0
14/06:30pm 18.9 13.2 9.7 55 4.9 W 30 41 16 22 1009.5 1009.5 0.0
14/06:27pm 18.9 13.4 10.5 58 4.5 W 30 48 16 26 1009.6 1009.6 0.0
14/06:00pm 19.2 12.8 9.4 53 5.2 W 33 48 18 26 1009.5 1009.5 0.0
14/05:30pm 19.6 12.9 9.8 53 5.2 W 35 52 19 28 1009.6 1009.6 0.0
14/05:00pm 19.9 12.0 9.5 51 5.5 W 41 59 22 32 1009.5 1009.5 0.0
14/04:47pm 19.9 12.1 9.8 52 5.4 W 41 59 22 32 1009.3 1009.3 0.0
14/04:30pm 20.0 11.5 8.7 48 5.9 W 43 56 23 30 1009.5 1009.5 0.0
14/04:00pm 19.8 11.7 8.8 49 5.8 W 41 56 22 30 1010.0 1010.0 0.0
14/03:30pm 19.8 12.0 9.7 52 5.4 W 41 59 22 32 1010.3 1010.3 0.0
14/03:09pm 18.8 10.7 8.7 52 5.3 W 41 59 22 32 1010.7 1010.7 0.0
14/03:00pm 18.7 10.2 8.7 52 5.2 W 43 59 23 32 1010.8 1010.8 0.0
14/02:38pm 18.4 11.7 9.7 57 4.6 W 35 54 19 29 1011.1 1011.1 0.0
14/02:30pm 18.2 11.1 9.5 57 4.6 W 37 52 20 28 1011.2 1011.2 0.0
14/02:00pm 17.7 10.6 9.6 59 4.3 W 37 57 20 31 1011.5 1011.5 0.0
14/01:30pm 17.4 9.7 8.8 57 4.4 WNW 39 59 21 32 1011.9 1011.9 0.0
14/01:01pm 17.3 11.1 9.5 60 4.1 W 32 50 17 27 1012.2 1012.2 0.0
14/01:00pm 17.2 11.1 9.6 61 4.0 W 32 48 17 26 1012.3 1012.3 0.0
14/12:49pm 17.1 10.6 10.5 65 3.5 W 35 54 19 29 1012.4 1012.4 0.0
14/12:30pm 17.1 9.7 10.0 63 3.7 WNW 39 50 21 27 1012.5 1012.5 0.0
14/12:00pm 17.0 9.2 9.9 63 3.7 WNW 41 52 22 28 1012.6 1012.6 0.0
14/11:30am 16.6 10.0 10.0 65 3.5 W 35 50 19 27 1013.0 1013.0 0.0
14/11:00am 16.2 10.1 9.6 65 3.4 WNW 32 48 17 26 1013.1 1013.1 0.0
14/10:50am 15.8 9.3 10.3 70 2.9 WNW 35 54 19 29 1013.1 1013.1 0.0
14/10:30am 14.9 9.4 10.5 75 2.3 WNW 30 43 16 23 1013.1 1013.1 0.0
14/10:00am 14.1 7.5 9.9 76 2.2 W 35 54 19 29 1013.1 1013.1 0.0
14/09:53am 14.2 7.5 9.8 75 2.3 WNW 35 54 19 29 1012.9 1012.9 0.0
14/09:30am 14.4 8.9 10.6 78 2.0 WNW 30 46 16 25 1012.9 1012.9 0.0
14/09:11am 13.7 7.4 9.6 76 2.1 WNW 33 52 18 28 1012.8 1012.8 0.0
14/09:00am 13.8 8.9 10.0 78 2.0 WNW 26 39 14 21 1012.9 1012.9 0.2
14/08:30am 13.4 9.2 9.8 79 1.8 W 22 33 12 18 1012.9 1012.9 0.2
14/08:00am 13.3 8.6 9.4 77 2.0 WNW 24 43 13 23 1012.6 1012.6 0.2
14/07:30am 13.2 8.6 9.6 79 1.8 WNW 24 32 13 17 1012.3 1012.3 0.2
14/07:00am 12.7 7.4 9.9 83 1.4 W 28 41 15 22 1012.4 1012.4 0.2
14/06:30am 11.8 7.1 9.4 85 1.2 W 24 32 13 17 1012.2 1012.2 0.2
14/06:00am 11.5 6.8 9.2 86 1.2 W 24 33 13 18 1012.0 1012.0 0.2
14/05:30am 11.5 7.3 9.6 88 1.0 W 22 30 12 16 1012.0 1012.0 0.2
14/05:00am 11.4 7.5 9.3 87 1.1 W 20 28 11 15 1012.0 1012.0 0.2
14/04:30am 11.7 7.1 9.6 87 1.1 WNW 24 30 13 16 1012.2 1012.2 0.2
14/04:00am 11.9 8.3 9.8 87 1.1 W 19 24 10 13 1012.5 1012.5 0.2
14/03:30am 11.9 7.3 9.6 86 1.2 W 24 33 13 18 1012.7 1012.7 0.2
14/03:00am 11.9 6.3 10.0 88 1.0 W 30 39 16 21 1012.9 1012.9 0.2
14/02:30am 11.7 7.7 10.6 93 0.6 W 22 33 12 18 1013.0 1013.0 0.2
14/02:00am 11.7 8.4 10.8 94 0.5 W 19 24 10 13 1013.1 1013.1 0.2
14/01:30am 11.6 8.0 10.7 94 0.5 W 20 26 11 14 1013.4 1013.4 0.2
14/01:00am 11.8 7.5 10.7 93 0.6 W 24 32 13 17 1013.4 1013.4 0.0
14/12:30am 12.1 7.5 11.0 93 0.6 W 26 35 14 19 1013.7 1013.7 0.0
14/12:00am 12.6 7.9 10.5 87 1.1 W 26 37 14 20 1013.6 1013.6 0.0
 
Date/Time
EDT
Temp
°C
App
Temp
°C
Dew
Point
°C
Rel
Hum
%
Delta-T
°C
Wind Press
QNH
hPa
Press
MSL
hPa
Rain since
9am
mm
Dir  Spd
km/h
Gust
km/h
Spd
kts
Gust
kts
13/11:53pm 12.5 7.3 10.2 86 1.2 W 28 46 15 25 1013.6 1013.6 0.0
13/11:43pm 12.3 7.2 10.5 89 0.9 W 28 43 15 23 1013.6 1013.6 0.0
13/11:30pm 12.5 9.1 10.6 88 1.0 W 19 24 10 13 1013.7 1013.7 0.0
13/11:00pm 12.5 8.1 10.4 87 1.1 W 24 35 13 19 1013.7 1013.7 0.0
13/10:30pm 12.6 7.7 10.0 84 1.3 W 26 35 14 19 1013.7 1013.7 0.0
13/10:00pm 13.0 7.3 9.8 81 1.6 W 30 39 16 21 1013.8 1013.8 0.0
13/09:30pm 12.8 6.7 9.8 82 1.5 W 32 44 17 24 1013.5 1013.5 0.0
13/09:00pm 12.5 6.4 9.9 84 1.3 W 32 46 17 25 1013.1 1013.1 0.0
13/08:46pm 12.5 7.2 9.7 83 1.4 W 28 46 15 25 1012.9 1012.9 0.0
13/08:30pm 12.5 6.9 10.0 85 1.3 W 30 43 16 23 1012.9 1012.9 0.0
13/08:06pm 12.6 6.4 10.1 85 1.3 W 33 52 18 28 1012.5 1012.5 0.0
13/08:00pm 12.6 6.5 10.3 86 1.2 W 33 48 18 26 1012.5 1012.5 0.0
13/07:30pm 13.9 6.4 9.5 75 2.3 W 39 59 21 32 1012.0 1012.0 0.0
13/07:02pm 14.0 7.2 9.2 73 2.4 W 35 61 19 33 1011.8 1011.8 0.0
13/07:00pm 14.0 7.2 9.4 74 2.4 W 35 52 19 28 1011.7 1011.7 0.0
13/06:30pm 14.4 6.8 9.0 70 2.7 W 39 61 21 33 1011.3 1011.3 0.0
13/06:00pm 14.1 7.9 9.5 74 2.4 W 32 50 17 27 1011.4 1011.4 0.0
13/05:54pm 13.9 7.6 9.1 73 2.4 W 32 50 17 27 1011.3 1011.3 0.0
13/05:30pm 13.9 7.6 9.1 73 2.4 W 32 46 17 25 1011.2 1011.2 0.0
13/05:14pm 14.4 7.5 8.8 69 2.8 W 35 57 19 31 1011.1 1011.1 0.0
13/05:00pm 14.6 6.6 9.0 69 2.9 WNW 41 56 22 30 1010.9 1010.9 0.0
13/04:43pm 14.7 7.9 9.3 70 2.8 WNW 35 54 19 29 1011.2 1011.2 0.0
13/04:30pm 13.9 6.1 8.3 69 2.8 WNW 39 56 21 30 1011.4 1011.4 0.0
13/04:06pm 13.7 7.2 8.1 69 2.8 WNW 32 50 17 27 1011.6 1011.6 0.0
13/04:00pm 13.6 6.1 8.0 69 2.8 WNW 37 54 20 29 1011.6 1011.6 0.0
13/03:30pm 14.0 6.1 8.0 67 3.0 WNW 39 57 21 31 1011.7 1011.7 0.0
13/03:00pm 14.5 6.1 7.3 62 3.5 WNW 41 67 22 36 1011.6 1011.6 0.0
13/02:31pm 14.5 6.2 6.3 58 3.9 WNW 39 59 21 32 1012.0 1012.0 0.0
13/02:30pm 14.7 6.5 6.5 58 4.0 WNW 39 50 21 27 1012.0 1012.0 0.0
13/02:00pm 15.9 7.3 6.6 54 4.6 WNW 41 61 22 33 1011.6 1011.6 0.0
13/01:30pm 15.7 6.6 6.7 55 4.4 WNW 44 63 24 34 1012.0 1012.0 0.0
13/01:00pm 14.5 6.2 6.3 58 3.9 W 39 57 21 31 1012.2 1012.2 0.0
13/12:54pm 14.3 5.5 7.4 63 3.4 WNW 43 61 23 33 1012.1 1012.1 0.0
13/12:30pm 14.1 5.8 6.0 58 3.9 WNW 39 56 21 30 1012.3 1012.3 0.0
13/12:00pm 14.0 6.1 8.0 67 3.0 W 39 52 21 28 1012.7 1012.7 0.0
13/11:31am 13.1 4.6 7.1 67 2.9 W 41 59 22 32 1012.5 1012.5 0.0
13/11:30am 13.0 4.0 6.6 65 3.1 W 43 59 23 32 1012.5 1012.5 0.0
13/11:00am 13.5 4.8 7.7 68 2.9 WNW 43 65 23 35 1012.4 1012.4 0.0
13/10:54am 13.2 5.6 7.4 68 2.8 WNW 37 57 20 31 1012.6 1012.6 0.0
13/10:30am 11.2 5.5 8.4 83 1.4 W 28 44 15 24 1013.3 1013.3 0.0
13/10:00am 12.9 5.3 7.6 70 2.6 WNW 37 52 20 28 1012.7 1012.7 0.0
13/09:44am 11.7 4.2 6.4 70 2.5 W 35 54 19 29 1012.8 1012.8 0.0
13/09:30am 11.9 5.1 7.6 75 2.1 W 33 46 18 25 1012.7 1012.7 0.0
13/09:00am 10.5 3.7 7.7 83 1.3 W 33 46 18 25 1012.6 1012.6 2.8
13/08:30am 10.4 3.4 6.7 78 1.7 W 33 44 18 24 1012.8 1012.8 2.4
13/08:28am 10.5 3.4 6.6 77 1.8 W 33 52 18 28 1012.7 1012.7 2.4
13/08:00am 10.9 4.2 7.2 78 1.8 WNW 32 43 17 23 1012.4 1012.4 2.4
13/07:30am 10.3 3.9 7.0 80 1.6 W 30 44 16 24 1012.2 1012.2 2.4
13/07:00am 9.1 3.0 6.5 84 1.2 W 28 35 15 19 1012.1 1012.1 2.4
13/06:30am 8.4 3.0 6.2 86 1.0 W 24 30 13 16 1012.1 1012.1 2.4
13/06:00am 7.8 3.0 5.8 87 0.9 WNW 20 24 11 13 1011.6 1011.6 2.4
13/05:30am 7.7 2.2 5.7 87 0.9 W 24 35 13 19 1011.6 1011.6 2.4
13/05:00am 7.1 2.8 5.4 89 0.8 WNW 17 24 9 13 1011.4 1011.4 2.0
13/04:30am 7.5 3.0 6.0 90 0.7 WNW 19 24 10 13 1011.5 1011.5 2.0
13/04:00am 7.7 3.8 5.5 86 1.0 WNW 15 24 8 13 1011.6 1011.6 1.8
13/03:30am 7.6 2.0 5.2 85 1.1 WNW 24 33 13 18 1011.6 1011.6 1.8
13/03:00am 6.9 2.5 4.6 85 1.0 WNW 17 22 9 12 1011.8 1011.8 1.8
13/02:30am 7.4 1.7 5.0 85 1.1 W 24 32 13 17 1011.9 1011.9 1.8
13/02:00am 7.8 2.2 5.3 84 1.1 W 24 33 13 18 1011.9 1011.9 1.8
13/01:30am 7.4 1.6 4.2 80 1.4 W 24 35 13 19 1011.7 1011.7 1.6
13/01:00am 7.6 1.5 4.6 81 1.3 W 26 37 14 20 1012.1 1012.1 1.6
13/12:44am 7.7 0.0 5.2 84 1.1 WSW 35 54 19 29 1012.2 1012.2 1.6
13/12:36am 8.0 3.1 5.1 82 1.3 W 20 52 11 28 1012.3 1012.3 1.4

Other formats

Comma delimited format used in spreadsheet applications
http://www.bom.gov.au/fwo/IDV60801/IDV60801.95890.axf

JavaScript Object Notation format (JSON) in row-major order
http://www.bom.gov.au/fwo/IDV60801/IDV60801.95890.json

Data quality

Most of these data are generated automatically and are frequently updated. Quality checks on data are not normally performed. It is possible for incorrect values to appear. Refer to information at About Latest Weather Observations and please check the disclaimer before using these data.